sensor_id;sensor_type;location;lat;lon;timestamp;temperature;humidity
28247;DHT22;66191;53.178;22.058;2023-02-24T00:00:17;4.10;95.30
28247;DHT22;66191;53.178;22.058;2023-02-24T16:50:40;6.30;99.90
28247;DHT22;66191;53.178;22.058;2023-02-24T16:53:15;6.30;99.90
28247;DHT22;66191;53.178;22.058;2023-02-24T16:55:50;6.20;99.90
28247;DHT22;66191;53.178;22.058;2023-02-24T16:58:22;6.20;99.90
28247;DHT22;66191;53.178;22.058;2023-02-24T17:00:56;6.20;99.90
28247;DHT22;66191;53.178;22.058;2023-02-24T17:03:35;6.20;99.90
28247;DHT22;66191;53.178;22.058;2023-02-24T17:06:10;6.10;99.90
28247;DHT22;66191;53.178;22.058;2023-02-24T17:08:42;6.10;99.90
28247;DHT22;66191;53.178;22.058;2023-02-24T17:11:13;6.10;99.90
28247;DHT22;66191;53.178;22.058;2023-02-24T17:13:45;6.10;99.90
28247;DHT22;66191;53.178;22.058;2023-02-24T17:16:15;6.00;99.90
28247;DHT22;66191;53.178;22.058;2023-02-24T17:18:46;6.00;99.90
28247;DHT22;66191;53.178;22.058;2023-02-24T17:21:20;6.00;99.90
28247;DHT22;66191;53.178;22.058;2023-02-24T17:23:51;5.90;99.90
28247;DHT22;66191;53.178;22.058;2023-02-24T17:26:22;5.90;99.90
28247;DHT22;66191;53.178;22.058;2023-02-24T17:28:53;5.90;99.90
28247;DHT22;66191;53.178;22.058;2023-02-24T17:31:24;5.80;99.90
28247;DHT22;66191;53.178;22.058;2023-02-24T17:33:58;5.80;99.90
28247;DHT22;66191;53.178;22.058;2023-02-24T17:36:35;5.80;99.90
28247;DHT22;66191;53.178;22.058;2023-02-24T17:39:06;5.70;99.90
28247;DHT22;66191;53.178;22.058;2023-02-24T17:41:37;5.70;99.90
28247;DHT22;66191;53.178;22.058;2023-02-24T17:44:08;5.70;99.90
28247;DHT22;66191;53.178;22.058;2023-02-24T17:46:38;5.70;99.90
28247;DHT22;66191;53.178;22.058;2023-02-24T17:49:10;5.60;99.90
28247;DHT22;66191;53.178;22.058;2023-02-24T17:51:43;5.60;99.90
28247;DHT22;66191;53.178;22.058;2023-02-24T17:54:14;5.60;99.90
28247;DHT22;66191;53.178;22.058;2023-02-24T17:56:44;5.50;99.90
28247;DHT22;66191;53.178;22.058;2023-02-24T17:59:16;5.50;99.90
28247;DHT22;66191;53.178;22.058;2023-02-24T18:01:46;5.40;99.90
28247;DHT22;66191;53.178;22.058;2023-02-24T18:04:18;5.40;99.90
28247;DHT22;66191;53.178;22.058;2023-02-24T18:06:51;5.40;99.90
28247;DHT22;66191;53.178;22.058;2023-02-24T18:09:23;5.40;99.90
28247;DHT22;66191;53.178;22.058;2023-02-24T18:11:53;5.40;99.90
28247;DHT22;66191;53.178;22.058;2023-02-24T18:14:24;5.30;99.90
28247;DHT22;66191;53.178;22.058;2023-02-24T18:16:56;5.30;99.70
28247;DHT22;66191;53.178;22.058;2023-02-24T18:19:27;5.30;99.90
28247;DHT22;66191;53.178;22.058;2023-02-24T18:22:01;5.20;99.70
28247;DHT22;66191;53.178;22.058;2023-02-24T18:24:33;5.20;98.40
28247;DHT22;66191;53.178;22.058;2023-02-24T18:27:03;5.00;97.40
28247;DHT22;66191;53.178;22.058;2023-02-24T18:29:35;4.90;96.40
28247;DHT22;66191;53.178;22.058;2023-02-24T18:32:05;4.80;96.10
28247;DHT22;66191;53.178;22.058;2023-02-24T18:34:37;4.60;95.30
28247;DHT22;66191;53.178;22.058;2023-02-24T18:37:14;4.50;95.10
28247;DHT22;66191;53.178;22.058;2023-02-24T18:39:50;4.40;95.00
28247;DHT22;66191;53.178;22.058;2023-02-24T18:42:21;4.30;94.80
28247;DHT22;66191;53.178;22.058;2023-02-24T18:44:52;4.20;94.60
28247;DHT22;66191;53.178;22.058;2023-02-24T18:47:23;4.10;95.00
28247;DHT22;66191;53.178;22.058;2023-02-24T18:49:54;4.10;95.10
28247;DHT22;66191;53.178;22.058;2023-02-24T18:52:27;4.00;95.00
28247;DHT22;66191;53.178;22.058;2023-02-24T18:54:58;4.00;95.20
28247;DHT22;66191;53.178;22.058;2023-02-24T18:57:29;3.90;95.20
28247;DHT22;66191;53.178;22.058;2023-02-24T19:00:01;3.90;95.20
28247;DHT22;66191;53.178;22.058;2023-02-24T19:02:32;3.90;95.20
28247;DHT22;66191;53.178;22.058;2023-02-24T19:05:04;3.80;95.10
28247;DHT22;66191;53.178;22.058;2023-02-24T19:07:37;3.80;95.00
28247;DHT22;66191;53.178;22.058;2023-02-24T19:10:10;3.80;95.10
28247;DHT22;66191;53.178;22.058;2023-02-24T19:12:44;3.80;95.20
28247;DHT22;66191;53.178;22.058;2023-02-24T19:15:18;3.80;95.00
28247;DHT22;66191;53.178;22.058;2023-02-24T19:17:49;3.80;94.90
28247;DHT22;66191;53.178;22.058;2023-02-24T19:20:20;3.80;95.00
28247;DHT22;66191;53.178;22.058;2023-02-24T19:22:54;3.70;94.80
28247;DHT22;66191;53.178;22.058;2023-02-24T19:25:25;3.70;94.90
28247;DHT22;66191;53.178;22.058;2023-02-24T19:27:57;3.70;94.80
28247;DHT22;66191;53.178;22.058;2023-02-24T19:30:28;3.70;95.00
28247;DHT22;66191;53.178;22.058;2023-02-24T19:32:58;3.70;94.80
28247;DHT22;66191;53.178;22.058;2023-02-24T19:35:30;3.60;94.80
28247;DHT22;66191;53.178;22.058;2023-02-24T19:38:03;3.70;94.90
28247;DHT22;66191;53.178;22.058;2023-02-24T19:40:35;3.70;94.70
28247;DHT22;66191;53.178;22.058;2023-02-24T19:43:05;3.70;94.70
28247;DHT22;66191;53.178;22.058;2023-02-24T19:45:39;3.70;94.80
28247;DHT22;66191;53.178;22.058;2023-02-24T19:48:10;3.70;94.80
28247;DHT22;66191;53.178;22.058;2023-02-24T19:50:42;3.70;94.80
28247;DHT22;66191;53.178;22.058;2023-02-24T19:53:15;3.60;94.70
28247;DHT22;66191;53.178;22.058;2023-02-24T19:55:49;3.70;94.10
28247;DHT22;66191;53.178;22.058;2023-02-24T19:58:20;3.60;94.70
28247;DHT22;66191;53.178;22.058;2023-02-24T20:00:52;3.60;94.60
28247;DHT22;66191;53.178;22.058;2023-02-24T20:03:22;3.60;94.70
28247;DHT22;66191;53.178;22.058;2023-02-24T20:05:56;3.60;94.80
28247;DHT22;66191;53.178;22.058;2023-02-24T20:08:30;3.60;94.80
28247;DHT22;66191;53.178;22.058;2023-02-24T20:11:03;3.60;94.80
28247;DHT22;66191;53.178;22.058;2023-02-24T20:13:34;3.60;94.80
28247;DHT22;66191;53.178;22.058;2023-02-24T20:16:07;3.70;94.70
28247;DHT22;66191;53.178;22.058;2023-02-24T20:18:39;3.60;94.70
28247;DHT22;66191;53.178;22.058;2023-02-24T20:21:11;3.70;94.60
28247;DHT22;66191;53.178;22.058;2023-02-24T20:23:44;3.70;94.80
28247;DHT22;66191;53.178;22.058;2023-02-24T20:26:16;3.70;94.60
28247;DHT22;66191;53.178;22.058;2023-02-24T20:28:47;3.70;94.50
28247;DHT22;66191;53.178;22.058;2023-02-24T20:31:34;3.80;94.50
28247;DHT22;66191;53.178;22.058;2023-02-24T20:34:11;3.80;94.30
28247;DHT22;66191;53.178;22.058;2023-02-24T20:36:43;3.80;94.50
28247;DHT22;66191;53.178;22.058;2023-02-24T20:39:16;3.70;94.50
28247;DHT22;66191;53.178;22.058;2023-02-24T20:41:51;3.70;94.30
28247;DHT22;66191;53.178;22.058;2023-02-24T20:44:23;3.70;94.60
28247;DHT22;66191;53.178;22.058;2023-02-24T20:46:54;3.70;94.70
28247;DHT22;66191;53.178;22.058;2023-02-24T20:49:25;3.70;94.60
28247;DHT22;66191;53.178;22.058;2023-02-24T20:51:56;3.70;94.50
28247;DHT22;66191;53.178;22.058;2023-02-24T20:54:31;3.60;94.60
28247;DHT22;66191;53.178;22.058;2023-02-24T20:57:02;3.60;94.70
28247;DHT22;66191;53.178;22.058;2023-02-24T20:59:35;3.60;94.60
28247;DHT22;66191;53.178;22.058;2023-02-24T21:02:21;3.60;94.60
28247;DHT22;66191;53.178;22.058;2023-02-24T21:04:52;3.60;94.60
28247;DHT22;66191;53.178;22.058;2023-02-24T21:07:23;3.60;94.50
28247;DHT22;66191;53.178;22.058;2023-02-24T21:09:56;3.50;94.60
28247;DHT22;66191;53.178;22.058;2023-02-24T21:12:28;3.50;94.60
28247;DHT22;66191;53.178;22.058;2023-02-24T21:14:58;3.40;94.70
28247;DHT22;66191;53.178;22.058;2023-02-24T21:17:29;3.40;94.50
28247;DHT22;66191;53.178;22.058;2023-02-24T21:20:00;3.40;94.90
28247;DHT22;66191;53.178;22.058;2023-02-24T21:22:32;3.40;95.00
28247;DHT22;66191;53.178;22.058;2023-02-24T21:25:06;3.40;95.10
28247;DHT22;66191;53.178;22.058;2023-02-24T21:27:37;3.40;95.20
28247;DHT22;66191;53.178;22.058;2023-02-24T21:30:08;3.40;95.30
28247;DHT22;66191;53.178;22.058;2023-02-24T21:32:40;3.40;95.00
28247;DHT22;66191;53.178;22.058;2023-02-24T21:35:10;3.40;95.20
28247;DHT22;66191;53.178;22.058;2023-02-24T21:37:41;3.40;95.10
28247;DHT22;66191;53.178;22.058;2023-02-24T21:40:15;3.40;95.30
28247;DHT22;66191;53.178;22.058;2023-02-24T21:42:46;3.40;95.40
28247;DHT22;66191;53.178;22.058;2023-02-24T21:45:17;3.40;95.50
28247;DHT22;66191;53.178;22.058;2023-02-24T21:47:49;3.40;95.60
28247;DHT22;66191;53.178;22.058;2023-02-24T21:50:21;3.40;95.60
28247;DHT22;66191;53.178;22.058;2023-02-24T21:52:52;3.40;95.70
28247;DHT22;66191;53.178;22.058;2023-02-24T21:55:25;3.40;95.80
28247;DHT22;66191;53.178;22.058;2023-02-24T21:57:57;3.40;95.80
28247;DHT22;66191;53.178;22.058;2023-02-24T22:00:27;3.30;95.90
28247;DHT22;66191;53.178;22.058;2023-02-24T22:02:59;3.40;96.00
28247;DHT22;66191;53.178;22.058;2023-02-24T22:05:30;3.40;96.10
28247;DHT22;66191;53.178;22.058;2023-02-24T22:08:01;3.40;96.00
28247;DHT22;66191;53.178;22.058;2023-02-24T22:10:35;3.40;96.10
28247;DHT22;66191;53.178;22.058;2023-02-24T22:13:06;3.40;96.20
28247;DHT22;66191;53.178;22.058;2023-02-24T22:15:37;3.40;96.30
28247;DHT22;66191;53.178;22.058;2023-02-24T22:18:08;3.40;96.40
28247;DHT22;66191;53.178;22.058;2023-02-24T22:20:40;3.40;96.30
28247;DHT22;66191;53.178;22.058;2023-02-24T22:23:11;3.50;96.30
28247;DHT22;66191;53.178;22.058;2023-02-24T22:25:44;3.50;96.40
28247;DHT22;66191;53.178;22.058;2023-02-24T22:28:15;3.50;96.40
28247;DHT22;66191;53.178;22.058;2023-02-24T22:30:53;3.50;96.40
28247;DHT22;66191;53.178;22.058;2023-02-24T22:33:24;3.50;96.60
28247;DHT22;66191;53.178;22.058;2023-02-24T22:36:00;3.50;96.60
28247;DHT22;66191;53.178;22.058;2023-02-24T22:38:33;3.50;96.60
28247;DHT22;66191;53.178;22.058;2023-02-24T22:41:10;3.50;96.70
28247;DHT22;66191;53.178;22.058;2023-02-24T22:43:41;3.60;96.70
28247;DHT22;66191;53.178;22.058;2023-02-24T22:46:14;3.50;96.70
28247;DHT22;66191;53.178;22.058;2023-02-24T22:48:48;3.60;96.80
28247;DHT22;66191;53.178;22.058;2023-02-24T22:51:19;3.60;96.80
28247;DHT22;66191;53.178;22.058;2023-02-24T22:53:51;3.60;96.90
28247;DHT22;66191;53.178;22.058;2023-02-24T22:56:26;3.60;97.00
28247;DHT22;66191;53.178;22.058;2023-02-24T22:58:58;3.60;97.20
28247;DHT22;66191;53.178;22.058;2023-02-24T23:01:32;3.60;97.50
28247;DHT22;66191;53.178;22.058;2023-02-24T23:04:05;3.60;97.40
28247;DHT22;66191;53.178;22.058;2023-02-24T23:06:36;3.60;97.50
28247;DHT22;66191;53.178;22.058;2023-02-24T23:09:08;3.70;97.60
28247;DHT22;66191;53.178;22.058;2023-02-24T23:11:42;3.60;97.60
28247;DHT22;66191;53.178;22.058;2023-02-24T23:14:14;3.70;97.70
28247;DHT22;66191;53.178;22.058;2023-02-24T23:16:50;3.70;97.90
28247;DHT22;66191;53.178;22.058;2023-02-24T23:19:23;3.70;98.10
28247;DHT22;66191;53.178;22.058;2023-02-24T23:21:54;3.70;98.10
28247;DHT22;66191;53.178;22.058;2023-02-24T23:24:26;3.70;98.20
28247;DHT22;66191;53.178;22.058;2023-02-24T23:27:00;3.70;98.40
28247;DHT22;66191;53.178;22.058;2023-02-24T23:29:33;3.70;98.50
28247;DHT22;66191;53.178;22.058;2023-02-24T23:32:04;3.70;98.50
28247;DHT22;66191;53.178;22.058;2023-02-24T23:34:36;3.70;98.70
28247;DHT22;66191;53.178;22.058;2023-02-24T23:37:07;3.70;98.80
28247;DHT22;66191;53.178;22.058;2023-02-24T23:39:40;3.70;98.90
28247;DHT22;66191;53.178;22.058;2023-02-24T23:42:13;3.70;99.00
28247;DHT22;66191;53.178;22.058;2023-02-24T23:44:45;3.70;99.10
28247;DHT22;66191;53.178;22.058;2023-02-24T23:47:16;3.70;99.20
28247;DHT22;66191;53.178;22.058;2023-02-24T23:49:47;3.70;99.20
28247;DHT22;66191;53.178;22.058;2023-02-24T23:52:17;3.60;99.30
28247;DHT22;66191;53.178;22.058;2023-02-24T23:54:49;3.60;99.70
28247;DHT22;66191;53.178;22.058;2023-02-24T23:57:23;3.60;99.90
28247;DHT22;66191;53.178;22.058;2023-02-24T23:59:54;3.60;99.80
